Crossfield, Canada
Current Conditions -  °F | °C
As of 10:00 AM on Saturday 20 Dec 2014 (Local Time) from CYYC Reporting Station
Broken Clouds Broken Clouds  
Wind Chill: 23°   Ceiling: 22000
Heat Index: 30°   Visibility: 40mi
Dew Point: 14°   Wind: 7mph
Humidity: 51%   Direction: 200°SSW
Pressure: 29.69"   Gusts: NA
Location:  51.43°N, 114.03°W
Report Text: CYYC 201700Z 20006KT 40SM FEW170 BKN220 M01/M10 A2969 RMK AC2CI3 SLP091
Loading
Personal Weather Stations






























Interactive Weather Map New forecast layout! Learn more

10-Day Weather Forecast

Advertisements
Track Severe Weather on mobile